sensor_id;sensor_type;location;lat;lon;timestamp;pressure;altitude;pressure_sealevel;temperature;humidity
56174;BME280;42058;52.308;20.924;2023-04-08T01:05:02;101257.58;;;5.97;100.00
56174;BME280;42058;52.308;20.924;2023-04-08T01:07:48;101267.48;;;5.95;100.00
56174;BME280;42058;52.308;20.924;2023-04-08T01:10:19;101261.87;;;5.94;100.00
56174;BME280;42058;52.308;20.924;2023-04-08T01:12:53;101266.75;;;5.92;100.00
56174;BME280;42058;52.308;20.924;2023-04-08T01:15:21;101269.00;;;5.91;100.00
56174;BME280;42058;52.308;20.924;2023-04-08T01:17:52;101267.24;;;5.88;100.00
56174;BME280;42058;52.308;20.924;2023-04-08T01:20:20;101267.41;;;5.87;100.00
56174;BME280;42058;52.308;20.924;2023-04-08T01:25:54;101275.56;;;5.82;100.00
56174;BME280;42058;52.308;20.924;2023-04-08T01:28:23;101272.05;;;5.80;100.00
56174;BME280;42058;52.308;20.924;2023-04-08T01:30:50;101276.91;;;5.77;100.00
56174;BME280;42058;52.308;20.924;2023-04-08T01:33:18;101280.04;;;5.75;100.00
56174;BME280;42058;52.308;20.924;2023-04-08T01:35:46;101277.59;;;5.73;100.00
56174;BME280;42058;52.308;20.924;2023-04-08T01:38:15;101276.70;;;5.69;100.00
56174;BME280;42058;52.308;20.924;2023-04-08T01:40:43;101279.12;;;5.67;100.00
56174;BME280;42058;52.308;20.924;2023-04-08T01:43:12;101278.23;;;5.63;100.00
56174;BME280;42058;52.308;20.924;2023-04-08T01:45:39;101275.92;;;5.60;100.00
56174;BME280;42058;52.308;20.924;2023-04-08T01:48:06;101277.84;;;5.58;100.00
56174;BME280;42058;52.308;20.924;2023-04-08T01:50:34;101277.47;;;5.55;100.00
56174;BME280;42058;52.308;20.924;2023-04-08T01:53:01;101276.73;;;5.53;100.00
56174;BME280;42058;52.308;20.924;2023-04-08T01:55:33;101277.41;;;5.50;100.00
56174;BME280;42058;52.308;20.924;2023-04-08T01:58:00;101278.61;;;5.48;100.00
56174;BME280;42058;52.308;20.924;2023-04-08T02:00:29;101281.56;;;5.45;100.00
56174;BME280;42058;52.308;20.924;2023-04-08T02:02:57;101287.62;;;5.42;100.00
56174;BME280;42058;52.308;20.924;2023-04-08T02:05:25;101302.55;;;5.37;100.00
56174;BME280;42058;52.308;20.924;2023-04-08T02:07:52;101311.38;;;5.32;100.00
56174;BME280;42058;52.308;20.924;2023-04-08T02:10:19;101311.16;;;5.28;100.00
56174;BME280;42058;52.308;20.924;2023-04-08T02:12:46;101306.23;;;5.23;100.00
56174;BME280;42058;52.308;20.924;2023-04-08T02:15:13;101304.27;;;5.18;100.00
56174;BME280;42058;52.308;20.924;2023-04-08T02:17:46;101306.33;;;5.13;100.00
56174;BME280;42058;52.308;20.924;2023-04-08T02:20:46;101307.32;;;5.08;100.00
56174;BME280;42058;52.308;20.924;2023-04-08T02:23:20;101313.53;;;5.03;100.00
56174;BME280;42058;52.308;20.924;2023-04-08T02:25:48;101311.90;;;4.98;100.00
56174;BME280;42058;52.308;20.924;2023-04-08T02:28:17;101313.59;;;4.93;100.00
56174;BME280;42058;52.308;20.924;2023-04-08T02:30:50;101319.97;;;4.89;100.00
56174;BME280;42058;52.308;20.924;2023-04-08T02:33:20;101316.44;;;4.83;100.00
56174;BME280;42058;52.308;20.924;2023-04-08T02:35:49;101317.60;;;4.77;100.00
56174;BME280;42058;52.308;20.924;2023-04-08T02:38:16;101320.48;;;4.72;100.00
56174;BME280;42058;52.308;20.924;2023-04-08T02:40:43;101329.30;;;4.68;100.00
56174;BME280;42058;52.308;20.924;2023-04-08T02:43:09;101328.02;;;4.63;100.00
56174;BME280;42058;52.308;20.924;2023-04-08T02:45:42;101322.75;;;4.58;100.00
56174;BME280;42058;52.308;20.924;2023-04-08T02:48:09;101329.98;;;4.53;100.00
56174;BME280;42058;52.308;20.924;2023-04-08T02:50:36;101335.64;;;4.48;100.00
56174;BME280;42058;52.308;20.924;2023-04-08T02:53:02;101340.45;;;4.43;100.00
56174;BME280;42058;52.308;20.924;2023-04-08T02:55:30;101342.45;;;4.36;100.00
56174;BME280;42058;52.308;20.924;2023-04-08T02:57:57;101345.67;;;4.31;100.00
56174;BME280;42058;52.308;20.924;2023-04-08T03:00:23;101344.39;;;4.26;100.00
56174;BME280;42058;52.308;20.924;2023-04-08T03:02:49;101349.35;;;4.20;100.00
56174;BME280;42058;52.308;20.924;2023-04-08T03:05:16;101352.76;;;4.15;100.00
56174;BME280;42058;52.308;20.924;2023-04-08T03:07:43;101360.31;;;4.10;100.00
56174;BME280;42058;52.308;20.924;2023-04-08T03:10:09;101361.10;;;4.05;100.00
56174;BME280;42058;52.308;20.924;2023-04-08T03:12:36;101365.02;;;3.99;100.00
56174;BME280;42058;52.308;20.924;2023-04-08T03:15:03;101364.95;;;3.95;100.00
56174;BME280;42058;52.308;20.924;2023-04-08T03:17:29;101366.59;;;3.90;100.00
56174;BME280;42058;52.308;20.924;2023-04-08T03:19:59;101369.64;;;3.85;100.00
56174;BME280;42058;52.308;20.924;2023-04-08T03:22:26;101372.00;;;3.80;100.00
56174;BME280;42058;52.308;20.924;2023-04-08T03:24:52;101371.75;;;3.76;100.00
56174;BME280;42058;52.308;20.924;2023-04-08T03:27:18;101375.52;;;3.73;100.00
56174;BME280;42058;52.308;20.924;2023-04-08T03:29:45;101376.69;;;3.70;100.00
56174;BME280;42058;52.308;20.924;2023-04-08T03:32:12;101378.54;;;3.66;100.00
56174;BME280;42058;52.308;20.924;2023-04-08T03:34:38;101377.63;;;3.64;100.00
56174;BME280;42058;52.308;20.924;2023-04-08T03:37:05;101383.49;;;3.62;100.00
56174;BME280;42058;52.308;20.924;2023-04-08T03:39:32;101384.30;;;3.58;100.00
56174;BME280;42058;52.308;20.924;2023-04-08T03:41:58;101384.94;;;3.56;100.00
56174;BME280;42058;52.308;20.924;2023-04-08T03:44:26;101389.41;;;3.53;100.00
56174;BME280;42058;52.308;20.924;2023-04-08T03:46:52;101387.82;;;3.52;100.00
56174;BME280;42058;52.308;20.924;2023-04-08T03:49:18;101387.41;;;3.49;100.00
56174;BME280;42058;52.308;20.924;2023-04-08T03:51:45;101391.88;;;3.46;100.00
56174;BME280;42058;52.308;20.924;2023-04-08T03:54:11;101392.69;;;3.43;100.00
56174;BME280;42058;52.308;20.924;2023-04-08T03:56:38;101392.64;;;3.40;100.00
56174;BME280;42058;52.308;20.924;2023-04-08T03:59:04;101393.45;;;3.37;100.00
56174;BME280;42058;52.308;20.924;2023-04-08T04:01:33;101398.60;;;3.34;100.00
56174;BME280;42058;52.308;20.924;2023-04-08T04:03:59;101400.64;;;3.32;100.00
56174;BME280;42058;52.308;20.924;2023-04-08T04:06:26;101402.52;;;3.30;100.00
56174;BME280;42058;52.308;20.924;2023-04-08T04:08:53;101400.02;;;3.26;100.00
56174;BME280;42058;52.308;20.924;2023-04-08T04:11:20;101404.48;;;3.23;100.00
56174;BME280;42058;52.308;20.924;2023-04-08T04:13:47;101406.16;;;3.21;100.00
56174;BME280;42058;52.308;20.924;2023-04-08T04:16:14;101409.41;;;3.18;100.00
56174;BME280;42058;52.308;20.924;2023-04-08T04:18:40;101412.98;;;3.15;100.00
56174;BME280;42058;52.308;20.924;2023-04-08T04:21:07;101410.86;;;3.13;100.00
56174;BME280;42058;52.308;20.924;2023-04-08T04:23:33;101412.20;;;3.10;100.00
56174;BME280;42058;52.308;20.924;2023-04-08T04:25:59;101411.80;;;3.07;100.00
56174;BME280;42058;52.308;20.924;2023-04-08T04:28:26;101419.05;;;3.06;100.00
56174;BME280;42058;52.308;20.924;2023-04-08T04:30:52;101422.47;;;3.04;100.00
56174;BME280;42058;52.308;20.924;2023-04-08T04:33:22;101427.61;;;3.02;100.00
56174;BME280;42058;52.308;20.924;2023-04-08T04:35:48;101430.36;;;3.00;100.00
56174;BME280;42058;52.308;20.924;2023-04-08T04:38:15;101432.24;;;2.98;100.00
56174;BME280;42058;52.308;20.924;2023-04-08T04:40:41;101439.14;;;2.97;100.00
56174;BME280;42058;52.308;20.924;2023-04-08T04:43:07;101441.17;;;2.95;100.00
56174;BME280;42058;52.308;20.924;2023-04-08T04:45:34;101448.61;;;2.94;100.00
56174;BME280;42058;52.308;20.924;2023-04-08T04:48:00;101445.80;;;2.92;100.00
56174;BME280;42058;52.308;20.924;2023-04-08T04:50:28;101455.67;;;2.92;100.00
56174;BME280;42058;52.308;20.924;2023-04-08T04:52:55;101455.66;;;2.91;100.00
56174;BME280;42058;52.308;20.924;2023-04-08T04:55:21;101457.02;;;2.90;100.00
56174;BME280;42058;52.308;20.924;2023-04-08T04:57:48;101455.77;;;2.88;100.00
56174;BME280;42058;52.308;20.924;2023-04-08T05:00:14;101459.77;;;2.88;100.00
56174;BME280;42058;52.308;20.924;2023-04-08T05:02:42;101457.48;;;2.87;100.00
56174;BME280;42058;52.308;20.924;2023-04-08T05:05:08;101457.48;;;2.87;100.00
56174;BME280;42058;52.308;20.924;2023-04-08T05:07:35;101461.51;;;2.89;100.00
56174;BME280;42058;52.308;20.924;2023-04-08T05:10:03;101460.68;;;2.91;100.00
56174;BME280;42058;52.308;20.924;2023-04-08T05:12:29;101458.45;;;2.92;100.00
56174;BME280;42058;52.308;20.924;2023-04-08T05:14:59;101464.05;;;2.95;100.00
56174;BME280;42058;52.308;20.924;2023-04-08T05:17:25;101462.54;;;2.97;100.00
56174;BME280;42058;52.308;20.924;2023-04-08T05:19:52;101466.94;;;3.00;100.00
56174;BME280;42058;52.308;20.924;2023-04-08T05:22:18;101468.04;;;3.02;100.00
56174;BME280;42058;52.308;20.924;2023-04-08T05:24:45;101473.33;;;3.07;100.00
56174;BME280;42058;52.308;20.924;2023-04-08T05:27:11;101473.27;;;3.12;100.00
56174;BME280;42058;52.308;20.924;2023-04-08T05:29:38;101475.10;;;3.17;100.00
56174;BME280;42058;52.308;20.924;2023-04-08T05:32:04;101475.73;;;3.23;100.00
56174;BME280;42058;52.308;20.924;2023-04-08T05:34:31;101474.15;;;3.30;100.00
56174;BME280;42058;52.308;20.924;2023-04-08T05:36:57;101471.67;;;3.37;100.00
56174;BME280;42058;52.308;20.924;2023-04-08T05:39:23;101472.72;;;3.46;100.00
56174;BME280;42058;52.308;20.924;2023-04-08T05:41:50;101472.54;;;3.54;100.00
56174;BME280;42058;52.308;20.924;2023-04-08T05:44:16;101475.15;;;3.64;100.00
56174;BME280;42058;52.308;20.924;2023-04-08T05:46:43;101473.78;;;3.74;100.00
56174;BME280;42058;52.308;20.924;2023-04-08T05:49:09;101472.59;;;3.85;100.00
56174;BME280;42058;52.308;20.924;2023-04-08T05:51:36;101469.48;;;3.96;100.00
56174;BME280;42058;52.308;20.924;2023-04-08T05:54:02;101473.51;;;4.08;100.00
56174;BME280;42058;52.308;20.924;2023-04-08T05:56:29;101474.20;;;4.20;100.00
56174;BME280;42058;52.308;20.924;2023-04-08T05:58:57;101478.91;;;4.31;100.00
56174;BME280;42058;52.308;20.924;2023-04-08T06:01:23;101482.08;;;4.44;100.00
56174;BME280;42058;52.308;20.924;2023-04-08T06:03:51;101479.98;;;4.55;100.00
56174;BME280;42058;52.308;20.924;2023-04-08T06:06:24;101487.30;;;4.68;100.00
56174;BME280;42058;52.308;20.924;2023-04-08T06:08:53;101487.30;;;4.81;100.00
56174;BME280;42058;52.308;20.924;2023-04-08T06:11:19;101485.91;;;4.93;100.00
56174;BME280;42058;52.308;20.924;2023-04-08T06:13:46;101485.38;;;5.05;100.00
56174;BME280;42058;52.308;20.924;2023-04-08T06:16:14;101487.98;;;5.19;100.00
56174;BME280;42058;52.308;20.924;2023-04-08T06:18:49;101482.06;;;5.34;100.00
56174;BME280;42058;52.308;20.924;2023-04-08T06:21:17;101484.48;;;5.47;100.00
56174;BME280;42058;52.308;20.924;2023-04-08T06:23:44;101489.35;;;5.62;100.00
56174;BME280;42058;52.308;20.924;2023-04-08T06:26:10;101490.92;;;5.77;100.00
56174;BME280;42058;52.308;20.924;2023-04-08T06:28:36;101485.52;;;5.94;100.00
56174;BME280;42058;52.308;20.924;2023-04-08T06:31:04;101486.88;;;6.08;100.00
56174;BME280;42058;52.308;20.924;2023-04-08T06:33:32;101488.05;;;6.21;100.00
56174;BME280;42058;52.308;20.924;2023-04-08T06:36:06;101486.95;;;6.37;100.00
56174;BME280;42058;52.308;20.924;2023-04-08T06:38:33;101483.06;;;6.53;100.00
56174;BME280;42058;52.308;20.924;2023-04-08T06:41:04;101485.44;;;6.69;100.00
56174;BME280;42058;52.308;20.924;2023-04-08T06:43:31;101485.69;;;6.84;100.00
56174;BME280;42058;52.308;20.924;2023-04-08T06:46:00;101491.70;;;6.97;100.00
56174;BME280;42058;52.308;20.924;2023-04-08T06:48:27;101489.15;;;7.10;100.00
56174;BME280;42058;52.308;20.924;2023-04-08T06:50:55;101488.69;;;7.22;100.00
56174;BME280;42058;52.308;20.924;2023-04-08T06:53:23;101486.29;;;7.35;100.00
56174;BME280;42058;52.308;20.924;2023-04-08T06:55:50;101489.12;;;7.44;100.00
56174;BME280;42058;52.308;20.924;2023-04-08T06:58:17;101491.76;;;7.51;100.00
56174;BME280;42058;52.308;20.924;2023-04-08T07:00:43;101495.98;;;7.57;100.00
56174;BME280;42058;52.308;20.924;2023-04-08T07:03:11;101495.98;;;7.63;100.00
56174;BME280;42058;52.308;20.924;2023-04-08T07:05:38;101499.84;;;7.68;100.00
56174;BME280;42058;52.308;20.924;2023-04-08T07:08:05;101501.60;;;7.73;100.00
56174;BME280;42058;52.308;20.924;2023-04-08T07:10:31;101499.16;;;7.74;100.00
56174;BME280;42058;52.308;20.924;2023-04-08T07:12:58;101500.39;;;7.78;100.00
56174;BME280;42058;52.308;20.924;2023-04-08T07:15:24;101502.84;;;7.81;100.00
56174;BME280;42058;52.308;20.924;2023-04-08T07:17:51;101500.57;;;7.82;100.00
56174;BME280;42058;52.308;20.924;2023-04-08T07:20:17;101503.71;;;7.85;100.00
56174;BME280;42058;52.308;20.924;2023-04-08T07:22:43;101505.30;;;7.88;99.99
56174;BME280;42058;52.308;20.924;2023-04-08T07:25:10;101505.66;;;7.92;99.97
56174;BME280;42058;52.308;20.924;2023-04-08T07:27:36;101499.70;;;7.96;99.08
56174;BME280;42058;52.308;20.924;2023-04-08T07:30:03;101495.55;;;8.01;99.55
56174;BME280;42058;52.308;20.924;2023-04-08T07:32:32;101500.08;;;8.07;99.36
56174;BME280;42058;52.308;20.924;2023-04-08T07:34:59;101502.02;;;8.14;99.08
56174;BME280;42058;52.308;20.924;2023-04-08T07:37:33;101503.41;;;8.23;99.40
56174;BME280;42058;52.308;20.924;2023-04-08T07:40:02;101497.13;;;8.33;99.90
56174;BME280;42058;52.308;20.924;2023-04-08T07:42:29;101500.83;;;8.46;99.90
56174;BME280;42058;52.308;20.924;2023-04-08T07:44:55;101498.36;;;8.58;99.20
56174;BME280;42058;52.308;20.924;2023-04-08T07:47:22;101504.46;;;8.73;99.31
56174;BME280;42058;52.308;20.924;2023-04-08T07:49:49;101498.48;;;8.87;98.53
56174;BME280;42058;52.308;20.924;2023-04-08T07:52:15;101498.62;;;9.04;97.90
56174;BME280;42058;52.308;20.924;2023-04-08T07:54:53;101501.88;;;9.20;97.51
56174;BME280;42058;52.308;20.924;2023-04-08T07:57:20;101507.25;;;9.39;97.20
56174;BME280;42058;52.308;20.924;2023-04-08T07:59:46;101507.69;;;9.55;96.10
56174;BME280;42058;52.308;20.924;2023-04-08T08:02:13;101505.84;;;9.74;96.03
56174;BME280;42058;52.308;20.924;2023-04-08T08:04:42;101500.11;;;9.94;95.60
56174;BME280;42058;52.308;20.924;2023-04-08T08:07:08;101498.73;;;10.14;95.82
56174;BME280;42058;52.308;20.924;2023-04-08T08:09:35;101497.17;;;10.36;95.00
56174;BME280;42058;52.308;20.924;2023-04-08T08:12:02;101495.61;;;10.56;92.95
56174;BME280;42058;52.308;20.924;2023-04-08T08:14:28;101496.66;;;10.74;92.69
56174;BME280;42058;52.308;20.924;2023-04-08T08:16:54;101494.04;;;10.91;91.38
56174;BME280;42058;52.308;20.924;2023-04-08T08:19:26;101494.36;;;11.08;90.92
56174;BME280;42058;52.308;20.924;2023-04-08T08:21:53;101489.08;;;11.25;89.96
56174;BME280;42058;52.308;20.924;2023-04-08T08:24:21;101487.63;;;11.43;89.16
56174;BME280;42058;52.308;20.924;2023-04-08T08:26:47;101484.41;;;11.60;88.09
56174;BME280;42058;52.308;20.924;2023-04-08T08:29:14;101485.60;;;11.75;86.77
56174;BME280;42058;52.308;20.924;2023-04-08T08:31:41;101482.77;;;11.89;84.92
56174;BME280;42058;52.308;20.924;2023-04-08T08:34:07;101485.23;;;12.01;83.42
56174;BME280;42058;52.308;20.924;2023-04-08T08:36:34;101483.10;;;12.14;81.78
56174;BME280;42058;52.308;20.924;2023-04-08T08:39:04;101484.27;;;12.29;82.07
56174;BME280;42058;52.308;20.924;2023-04-08T08:41:33;101480.83;;;12.45;81.48
56174;BME280;42058;52.308;20.924;2023-04-08T08:44:11;101480.54;;;12.62;80.16
56174;BME280;42058;52.308;20.924;2023-04-08T08:46:46;101478.28;;;12.78;79.44
56174;BME280;42058;52.308;20.924;2023-04-08T08:49:15;101474.09;;;12.95;79.20
56174;BME280;42058;52.308;20.924;2023-04-08T08:51:45;101476.63;;;13.09;77.60
56174;BME280;42058;52.308;20.924;2023-04-08T08:54:17;101478.10;;;13.23;75.52
56174;BME280;42058;52.308;20.924;2023-04-08T08:56:43;101479.84;;;13.35;73.89
56174;BME280;42058;52.308;20.924;2023-04-08T08:59:10;101476.47;;;13.44;72.76
56174;BME280;42058;52.308;20.924;2023-04-08T09:01:38;101476.23;;;13.54;71.99
56174;BME280;42058;52.308;20.924;2023-04-08T09:04:10;101475.80;;;13.67;71.46
56174;BME280;42058;52.308;20.924;2023-04-08T09:06:42;101473.98;;;13.77;70.60
56174;BME280;42058;52.308;20.924;2023-04-08T09:09:12;101474.92;;;13.89;70.58
56174;BME280;42058;52.308;20.924;2023-04-08T09:11:42;101474.44;;;14.02;69.60
56174;BME280;42058;52.308;20.924;2023-04-08T09:14:23;101473.63;;;14.14;69.48
56174;BME280;42058;52.308;20.924;2023-04-08T09:16:54;101478.44;;;14.26;67.79
56174;BME280;42058;52.308;20.924;2023-04-08T09:19:27;101476.38;;;14.37;67.60
56174;BME280;42058;52.308;20.924;2023-04-08T09:22:06;101477.73;;;14.47;66.54
56174;BME280;42058;52.308;20.924;2023-04-08T09:24:33;101477.87;;;14.56;66.10
56174;BME280;42058;52.308;20.924;2023-04-08T09:27:00;101481.16;;;14.66;65.19
56174;BME280;42058;52.308;20.924;2023-04-08T09:29:27;101479.84;;;14.75;64.76
56174;BME280;42058;52.308;20.924;2023-04-08T09:32:00;101481.14;;;14.86;64.20
56174;BME280;42058;52.308;20.924;2023-04-08T09:34:28;101482.29;;;14.95;63.43
56174;BME280;42058;52.308;20.924;2023-04-08T09:36:54;101483.48;;;15.03;63.22
56174;BME280;42058;52.308;20.924;2023-04-08T09:39:22;101481.34;;;15.10;62.46
56174;BME280;42058;52.308;20.924;2023-04-08T09:41:50;101477.89;;;15.13;61.73
56174;BME280;42058;52.308;20.924;2023-04-08T09:44:19;101477.20;;;15.19;62.01
56174;BME280;42058;52.308;20.924;2023-04-08T09:49:17;101477.92;;;15.25;60.85
56174;BME280;42058;52.308;20.924;2023-04-08T09:52:07;101473.45;;;15.27;60.59
56174;BME280;42058;52.308;20.924;2023-04-08T09:55:05;101471.45;;;15.28;60.42
56174;BME280;42058;52.308;20.924;2023-04-08T09:57:40;101468.59;;;15.29;60.23
56174;BME280;42058;52.308;20.924;2023-04-08T10:00:12;101474.55;;;15.31;59.93
56174;BME280;42058;52.308;20.924;2023-04-08T10:02:59;101472.40;;;15.32;59.47
56174;BME280;42058;52.308;20.924;2023-04-08T10:05:28;101464.23;;;15.33;59.31
56174;BME280;42058;52.308;20.924;2023-04-08T10:07:56;101467.13;;;15.37;60.35
56174;BME280;42058;52.308;20.924;2023-04-08T10:10:23;101465.36;;;15.43;60.01
56174;BME280;42058;52.308;20.924;2023-04-08T10:12:50;101463.18;;;15.45;59.00
56174;BME280;42058;52.308;20.924;2023-04-08T10:15:31;101464.36;;;15.47;59.15
56174;BME280;42058;52.308;20.924;2023-04-08T10:20:41;101462.77;;;15.52;58.65
56174;BME280;42058;52.308;20.924;2023-04-08T10:23:10;101458.70;;;15.53;58.48
56174;BME280;42058;52.308;20.924;2023-04-08T10:25:42;101459.36;;;15.54;57.58
56174;BME280;42058;52.308;20.924;2023-04-08T10:31:03;101452.77;;;15.56;56.98
56174;BME280;42058;52.308;20.924;2023-04-08T10:33:37;101457.70;;;15.56;56.49
56174;BME280;42058;52.308;20.924;2023-04-08T10:38:40;101446.34;;;15.57;56.53
56174;BME280;42058;52.308;20.924;2023-04-08T10:41:10;101446.46;;;15.60;56.62
56174;BME280;42058;52.308;20.924;2023-04-08T10:43:39;101444.77;;;15.63;56.75
56174;BME280;42058;52.308;20.924;2023-04-08T10:46:09;101441.98;;;15.67;56.54
56174;BME280;42058;52.308;20.924;2023-04-08T10:48:36;101444.52;;;15.71;56.58
56174;BME280;42058;52.308;20.924;2023-04-08T10:51:06;101443.36;;;15.74;56.30
56174;BME280;42058;52.308;20.924;2023-04-08T10:53:38;101442.20;;;15.78;56.37
56174;BME280;42058;52.308;20.924;2023-04-08T10:56:10;101442.08;;;15.82;55.74
56174;BME280;42058;52.308;20.924;2023-04-08T10:58:54;101445.02;;;15.84;55.45
56174;BME280;42058;52.308;20.924;2023-04-08T11:01:22;101442.54;;;15.83;55.04
56174;BME280;42058;52.308;20.924;2023-04-08T11:03:48;101438.25;;;15.85;55.53
56174;BME280;42058;52.308;20.924;2023-04-08T11:06:16;101436.75;;;15.88;55.52
56174;BME280;42058;52.308;20.924;2023-04-08T11:08:45;101433.45;;;15.91;55.92
56174;BME280;42058;52.308;20.924;2023-04-08T11:11:13;101433.48;;;15.96;56.00
56174;BME280;42058;52.308;20.924;2023-04-08T11:13:41;101429.67;;;15.99;55.34
56174;BME280;42058;52.308;20.924;2023-04-08T11:16:22;101426.60;;;16.01;54.38
56174;BME280;42058;52.308;20.924;2023-04-08T11:18:49;101426.55;;;16.03;54.64
56174;BME280;42058;52.308;20.924;2023-04-08T11:21:16;101428.19;;;16.06;54.37
56174;BME280;42058;52.308;20.924;2023-04-08T11:23:43;101420.09;;;16.10;53.95
56174;BME280;42058;52.308;20.924;2023-04-08T11:26:12;101420.34;;;16.13;53.93
56174;BME280;42058;52.308;20.924;2023-04-08T11:28:39;101420.73;;;16.18;53.60
56174;BME280;42058;52.308;20.924;2023-04-08T11:31:05;101420.09;;;16.21;53.57
56174;BME280;42058;52.308;20.924;2023-04-08T11:33:34;101419.39;;;16.26;53.24
56174;BME280;42058;52.308;20.924;2023-04-08T11:36:01;101420.13;;;16.29;53.31
56174;BME280;42058;52.308;20.924;2023-04-08T11:38:29;101416.20;;;16.36;53.88
56174;BME280;42058;52.308;20.924;2023-04-08T11:40:58;101416.23;;;16.40;53.26
56174;BME280;42058;52.308;20.924;2023-04-08T11:43:28;101418.73;;;16.45;52.79
56174;BME280;42058;52.308;20.924;2023-04-08T11:45:55;101408.59;;;16.51;53.43
56174;BME280;42058;52.308;20.924;2023-04-08T11:48:25;101411.63;;;16.60;53.78
56174;BME280;42058;52.308;20.924;2023-04-08T11:51:09;101409.34;;;16.69;54.02
56174;BME280;42058;52.308;20.924;2023-04-08T11:53:44;101413.72;;;16.81;54.20
56174;BME280;42058;52.308;20.924;2023-04-08T11:56:20;101413.23;;;16.94;54.65
56174;BME280;42058;52.308;20.924;2023-04-08T11:58:50;101406.55;;;17.03;54.15
56174;BME280;42058;52.308;20.924;2023-04-08T12:01:18;101403.78;;;17.10;53.47
56174;BME280;42058;52.308;20.924;2023-04-08T12:04:00;101404.23;;;17.21;54.21
56174;BME280;42058;52.308;20.924;2023-04-08T12:06:29;101400.36;;;17.34;53.75
56174;BME280;42058;52.308;20.924;2023-04-08T12:08:56;101397.08;;;17.41;53.25
56174;BME280;42058;52.308;20.924;2023-04-08T12:11:25;101395.16;;;17.49;52.52
56174;BME280;42058;52.308;20.924;2023-04-08T12:13:51;101397.43;;;17.55;52.05
56174;BME280;42058;52.308;20.924;2023-04-08T12:16:19;101397.56;;;17.56;51.85
56174;BME280;42058;52.308;20.924;2023-04-08T12:18:45;101393.89;;;17.63;52.12
56174;BME280;42058;52.308;20.924;2023-04-08T12:21:12;101387.91;;;17.71;51.61
56174;BME280;42058;52.308;20.924;2023-04-08T12:23:41;101387.61;;;17.74;50.63
56174;BME280;42058;52.308;20.924;2023-04-08T12:26:08;101389.69;;;17.79;51.31
56174;BME280;42058;52.308;20.924;2023-04-08T12:28:34;101383.91;;;17.86;51.90
56174;BME280;42058;52.308;20.924;2023-04-08T12:31:01;101385.02;;;17.94;51.03
56174;BME280;42058;52.308;20.924;2023-04-08T12:33:28;101383.23;;;17.99;50.20
56174;BME280;42058;52.308;20.924;2023-04-08T12:35:55;101382.31;;;17.99;49.50
56174;BME280;42058;52.308;20.924;2023-04-08T12:38:24;101377.27;;;18.01;50.27
56174;BME280;42058;52.308;20.924;2023-04-08T12:40:55;101376.07;;;18.09;50.41
56174;BME280;42058;52.308;20.924;2023-04-08T12:43:24;101375.84;;;18.18;50.65
56174;BME280;42058;52.308;20.924;2023-04-08T12:45:51;101374.31;;;18.29;49.98
56174;BME280;42058;52.308;20.924;2023-04-08T12:48:31;101369.45;;;18.39;50.37
56174;BME280;42058;52.308;20.924;2023-04-08T12:51:01;101372.29;;;18.51;49.84
56174;BME280;42058;52.308;20.924;2023-04-08T12:53:28;101371.23;;;18.58;49.02
56174;BME280;42058;52.308;20.924;2023-04-08T12:55:58;101363.20;;;18.63;48.27
56174;BME280;42058;52.308;20.924;2023-04-08T12:58:24;101362.67;;;18.67;47.72
56174;BME280;42058;52.308;20.924;2023-04-08T13:00:51;101357.29;;;18.64;46.82
56174;BME280;42058;52.308;20.924;2023-04-08T13:03:18;101361.00;;;18.60;47.16
56174;BME280;42058;52.308;20.924;2023-04-08T13:05:47;101362.05;;;18.57;47.26
56174;BME280;42058;52.308;20.924;2023-04-08T13:08:13;101356.84;;;18.58;47.40
56174;BME280;42058;52.308;20.924;2023-04-08T13:10:43;101357.04;;;18.58;47.53
56174;BME280;42058;52.308;20.924;2023-04-08T13:13:13;101358.40;;;18.55;47.91
56174;BME280;42058;52.308;20.924;2023-04-08T13:15:41;101358.27;;;18.50;47.68
56174;BME280;42058;52.308;20.924;2023-04-08T13:18:08;101353.91;;;18.44;47.51
56174;BME280;42058;52.308;20.924;2023-04-08T13:20:36;101348.45;;;18.39;47.72
56174;BME280;42058;52.308;20.924;2023-04-08T13:23:03;101348.63;;;18.39;48.23
56174;BME280;42058;52.308;20.924;2023-04-08T13:25:41;101344.58;;;18.38;48.04
56174;BME280;42058;52.308;20.924;2023-04-08T13:28:13;101340.47;;;18.39;48.38
56174;BME280;42058;52.308;20.924;2023-04-08T13:30:41;101337.97;;;18.39;48.26
56174;BME280;42058;52.308;20.924;2023-04-08T13:33:08;101334.58;;;18.40;48.07
56174;BME280;42058;52.308;20.924;2023-04-08T13:35:37;101338.09;;;18.37;47.88
56174;BME280;42058;52.308;20.924;2023-04-08T13:38:06;101342.02;;;18.32;47.88
56174;BME280;42058;52.308;20.924;2023-04-08T13:40:35;101338.70;;;18.27;47.86
56174;BME280;42058;52.308;20.924;2023-04-08T13:43:07;101337.64;;;18.22;47.93
56174;BME280;42058;52.308;20.924;2023-04-08T13:45:36;101332.85;;;18.18;48.17
56174;BME280;42058;52.308;20.924;2023-04-08T13:48:05;101335.67;;;18.15;48.14
56174;BME280;42058;52.308;20.924;2023-04-08T13:50:32;101340.80;;;18.07;48.11
56174;BME280;42058;52.308;20.924;2023-04-08T13:53:10;101337.69;;;17.97;47.65
56174;BME280;42058;52.308;20.924;2023-04-08T13:55:42;101338.60;;;17.88;47.03
56174;BME280;42058;52.308;20.924;2023-04-08T13:58:19;101332.40;;;17.78;46.85
56174;BME280;42058;52.308;20.924;2023-04-08T14:00:53;101329.86;;;17.71;46.65
56174;BME280;42058;52.308;20.924;2023-04-08T14:03:22;101332.70;;;17.63;46.68
56174;BME280;42058;52.308;20.924;2023-04-08T14:05:49;101330.98;;;17.53;46.66